createdAt,value
2022-08-03T00:01:48.739Z,55.00
2022-08-03T00:04:38.122Z,50.05
2022-08-03T00:07:27.547Z,51.17
2022-08-03T00:10:17.423Z,57.95
2022-08-03T00:13:07.251Z,53.80
2022-08-03T00:15:57.672Z,58.47
2022-08-03T00:18:47.513Z,61.35
2022-08-03T00:21:37.235Z,67.05
2022-08-03T00:24:27.006Z,60.33
2022-08-03T00:27:19.413Z,54.90
2022-08-03T00:30:09.807Z,52.50
2022-08-03T00:33:00.222Z,55.00
2022-08-03T00:35:51.281Z,47.03
2022-08-03T00:38:41.849Z,48.45
2022-08-03T00:41:31.985Z,47.33
2022-08-03T00:44:22.455Z,46.78
2022-08-03T00:47:12.191Z,58.10
2022-08-03T00:50:02.863Z,62.40
2022-08-03T00:52:58.548Z,59.38
2022-08-03T00:55:48.600Z,61.85
2022-08-03T00:58:38.613Z,61.67
2022-08-03T01:01:29.197Z,57.70
2022-08-03T01:04:22.931Z,58.42
2022-08-03T01:07:40.411Z,51.92
2022-08-03T01:10:33.453Z,55.33
2022-08-03T01:14:00.947Z,62.03
2022-08-03T01:17:01.756Z,66.07
2022-08-03T01:20:07.783Z,45.25
2022-08-03T01:23:05.695Z,36.85
2022-08-03T01:26:40.431Z,41.80
2022-08-03T01:29:47.195Z,56.75
2022-08-03T01:33:01.048Z,45.83
2022-08-03T01:36:11.652Z,31.75
2022-08-03T01:39:06.222Z,39.33
2022-08-03T01:42:02.019Z,24.20
2022-08-03T01:44:53.726Z,19.55
2022-08-03T01:47:44.733Z,22.45
2022-08-03T01:50:35.746Z,27.33
2022-08-03T01:53:25.457Z,26.90
2022-08-03T01:56:15.070Z,25.48
2022-08-03T01:59:05.133Z,27.70
2022-08-03T02:02:28.677Z,19.65
2022-08-03T02:05:10.774Z,22.80
2022-08-03T02:08:04.172Z,20.63
2022-08-03T02:10:55.816Z,21.45
2022-08-03T02:13:47.084Z,21.40
2022-08-03T02:16:37.443Z,25.45
2022-08-03T02:19:32.445Z,22.13
2022-08-03T02:22:26.586Z,20.17
2022-08-03T02:25:19.438Z,19.27
2022-08-03T02:28:14.267Z,18.40
2022-08-03T02:31:10.621Z,21.33
2022-08-03T02:34:04.266Z,18.55
2022-08-03T02:36:55.930Z,19.50
2022-08-03T02:39:46.573Z,16.85
2022-08-03T02:42:37.887Z,20.63
2022-08-03T02:45:28.741Z,23.08
2022-08-03T02:48:24.052Z,55.72
2022-08-03T02:51:13.832Z,72.72
2022-08-03T02:54:05.638Z,62.25
2022-08-03T02:56:56.852Z,67.85
2022-08-03T02:59:48.189Z,66.65
2022-08-03T03:02:39.088Z,86.32
2022-08-03T03:05:53.596Z,89.60
2022-08-03T03:08:44.005Z,72.07
2022-08-03T03:11:37.074Z,81.07
2022-08-03T03:14:33.694Z,86.65
2022-08-03T03:17:24.286Z,79.07
2022-08-03T03:20:14.894Z,90.45
2022-08-03T03:23:04.727Z,79.45
2022-08-03T03:25:57.497Z,68.03
2022-08-03T03:28:47.823Z,70.60
2022-08-03T03:31:38.742Z,75.70
2022-08-03T03:34:32.057Z,75.88
2022-08-03T03:37:21.645Z,86.50
2022-08-03T03:40:12.530Z,82.03
2022-08-03T03:43:02.926Z,82.90
2022-08-03T03:45:55.077Z,85.97
2022-08-03T03:48:44.936Z,95.07
2022-08-03T03:51:34.849Z,84.18
2022-08-03T03:54:25.440Z,84.18
2022-08-03T03:57:18.799Z,79.28
2022-08-03T04:00:09.540Z,77.90
2022-08-03T04:02:59.897Z,72.82
2022-08-03T04:06:07.601Z,72.80
2022-08-03T04:09:15.808Z,84.88
2022-08-03T04:12:07.282Z,74.38
2022-08-03T04:14:59.596Z,78.15
2022-08-03T04:17:51.861Z,77.53
2022-08-03T04:20:42.994Z,80.30
2022-08-03T04:23:36.390Z,76.95
2022-08-03T04:26:28.314Z,90.45
2022-08-03T04:29:18.718Z,76.88
2022-08-03T04:32:09.391Z,74.07
2022-08-03T04:34:59.295Z,79.03
2022-08-03T04:37:52.055Z,76.90
2022-08-03T04:40:44.293Z,76.13
2022-08-03T04:43:35.514Z,73.78
2022-08-03T04:46:29.579Z,74.90
2022-08-03T04:49:22.340Z,67.45
2022-08-03T04:52:12.201Z,64.00
2022-08-03T04:55:02.860Z,62.72
2022-08-03T04:57:52.904Z,59.92
2022-08-03T05:00:43.790Z,53.70
2022-08-03T05:03:34.435Z,60.40
2022-08-03T05:06:25.042Z,55.97
2022-08-03T05:09:45.954Z,58.38
2022-08-03T05:12:28.389Z,55.50
2022-08-03T05:15:22.280Z,56.55
2022-08-03T05:18:14.124Z,49.05
2022-08-03T05:21:05.750Z,47.70
2022-08-03T05:23:56.193Z,50.38
2022-08-03T05:26:46.305Z,47.67
2022-08-03T05:29:36.327Z,48.45
2022-08-03T05:32:26.007Z,42.35
2022-08-03T05:35:55.881Z,32.13
2022-08-03T05:38:28.540Z,42.25
2022-08-03T05:41:20.962Z,48.80
2022-08-03T05:44:14.209Z,55.97
2022-08-03T05:47:04.096Z,39.40
2022-08-03T05:49:53.527Z,29.50
2022-08-03T05:52:44.692Z,36.47
2022-08-03T05:55:34.408Z,36.95
2022-08-03T05:58:24.286Z,33.95
2022-08-03T06:01:26.099Z,28.13
2022-08-03T06:04:18.655Z,34.42
2022-08-03T06:07:09.112Z,26.52
2022-08-03T06:10:37.354Z,27.35
2022-08-03T06:13:09.401Z,28.52
2022-08-03T06:15:59.410Z,31.45
2022-08-03T06:18:49.470Z,28.58
2022-08-03T06:21:39.929Z,27.38
2022-08-03T06:24:30.848Z,28.20
2022-08-03T06:27:20.932Z,30.40
2022-08-03T06:30:27.969Z,32.75
2022-08-03T06:33:18.164Z,24.58
2022-08-03T06:36:08.774Z,25.10
2022-08-03T06:39:06.368Z,31.83
2022-08-03T06:41:58.316Z,32.45
2022-08-03T06:44:47.706Z,26.30
2022-08-03T06:47:39.040Z,25.58
2022-08-03T06:50:37.815Z,23.98
2022-08-03T06:53:28.319Z,23.40
2022-08-03T06:56:19.025Z,29.17
2022-08-03T07:00:09.005Z,25.55
2022-08-03T07:02:24.777Z,28.15
2022-08-03T07:05:18.475Z,28.63
2022-08-03T07:08:09.174Z,29.02
2022-08-03T07:11:00.539Z,27.92
2022-08-03T07:13:51.307Z,26.48
2022-08-03T07:16:42.713Z,25.90
2022-08-03T07:19:32.423Z,24.67
2022-08-03T07:22:25.549Z,26.55
2022-08-03T07:25:15.275Z,26.88
2022-08-03T07:28:06.016Z,23.30
2022-08-03T07:30:55.447Z,22.15
2022-08-03T07:33:45.557Z,25.15
2022-08-03T07:36:35.882Z,21.45
2022-08-03T07:39:25.354Z,22.58
2022-08-03T07:42:18.007Z,20.92
2022-08-03T07:45:09.578Z,29.42
2022-08-03T07:48:11.782Z,26.27
2022-08-03T07:51:02.754Z,25.52
2022-08-03T07:53:52.992Z,25.38
2022-08-03T07:56:43.449Z,31.65
2022-08-03T07:59:56.627Z,22.23
2022-08-03T08:02:45.357Z,18.85
2022-08-03T08:05:35.638Z,19.10
2022-08-03T08:08:26.228Z,23.60
2022-08-03T08:11:19.207Z,27.67
2022-08-03T08:14:09.557Z,25.58
2022-08-03T08:17:02.323Z,14.75
2022-08-03T08:19:53.644Z,23.73
2022-08-03T08:22:43.811Z,21.27
2022-08-03T08:25:34.485Z,17.77
2022-08-03T08:28:32.808Z,13.50
2022-08-03T08:31:23.390Z,23.05
2022-08-03T08:34:13.785Z,20.30
2022-08-03T08:37:04.055Z,19.08
2022-08-03T08:39:53.825Z,22.73
2022-08-03T08:42:56.538Z,20.63
2022-08-03T08:45:51.797Z,24.50
2022-08-03T08:48:46.253Z,31.10
2022-08-03T08:51:50.938Z,18.88
2022-08-03T08:54:50.637Z,17.23
2022-08-03T08:57:44.580Z,23.75
2022-08-03T09:00:34.341Z,19.27
2022-08-03T09:03:29.648Z,17.52
2022-08-03T09:06:21.274Z,28.73
2022-08-03T09:09:11.190Z,20.98
2022-08-03T09:12:41.126Z,22.75
2022-08-03T09:15:33.199Z,19.08
2022-08-03T09:18:34.631Z,26.13
2022-08-03T09:21:31.720Z,23.92
2022-08-03T09:24:40.833Z,25.55
2022-08-03T09:27:31.819Z,19.95
2022-08-03T09:30:34.447Z,27.42
2022-08-03T09:33:25.226Z,24.42
2022-08-03T09:36:39.529Z,30.50
2022-08-03T09:39:42.178Z,29.50
2022-08-03T09:42:32.951Z,25.67
2022-08-03T09:45:29.683Z,32.83
2022-08-03T09:48:26.680Z,31.17
2022-08-03T09:51:33.231Z,30.48
2022-08-03T09:54:34.098Z,43.03
2022-08-03T09:57:27.477Z,37.78
2022-08-03T10:00:18.821Z,41.30
2022-08-03T10:03:08.561Z,26.33
2022-08-03T10:05:59.926Z,34.78
2022-08-03T10:09:08.341Z,37.80
2022-08-03T10:11:58.860Z,41.58
2022-08-03T10:14:48.589Z,43.38
2022-08-03T10:17:40.373Z,48.47
2022-08-03T10:20:30.787Z,37.75
2022-08-03T10:23:21.796Z,39.00
2022-08-03T10:26:15.689Z,33.80
2022-08-03T10:29:12.368Z,41.40
2022-08-03T10:32:03.679Z,33.03
2022-08-03T10:35:00.118Z,35.25
2022-08-03T10:38:14.484Z,44.08
2022-08-03T10:41:04.914Z,43.50
2022-08-03T10:44:22.890Z,50.80
2022-08-03T10:47:12.912Z,43.65
2022-08-03T10:50:02.902Z,49.63
2022-08-03T10:53:03.959Z,42.78
2022-08-03T10:56:13.116Z,45.20
2022-08-03T10:59:07.065Z,41.15
2022-08-03T11:02:00.974Z,43.67
2022-08-03T11:05:31.038Z,39.05
2022-08-03T11:08:38.562Z,36.97
2022-08-03T11:11:30.042Z,44.03
2022-08-03T11:14:20.258Z,36.20
2022-08-03T11:17:15.181Z,45.67
2022-08-03T11:20:06.823Z,40.45
2022-08-03T11:23:00.933Z,39.17
2022-08-03T11:26:12.362Z,28.77
2022-08-03T11:29:31.982Z,30.27
2022-08-03T11:32:49.148Z,30.60
2022-08-03T11:36:02.853Z,28.13
2022-08-03T11:39:18.451Z,33.85
2022-08-03T11:42:26.990Z,31.50
2022-08-03T11:45:21.243Z,34.65
2022-08-03T11:48:18.501Z,36.63
2022-08-03T11:51:10.146Z,35.92
2022-08-03T11:54:05.625Z,38.28
2022-08-03T11:56:55.375Z,35.85
2022-08-03T11:59:44.934Z,35.75
2022-08-03T12:02:36.101Z,41.08
2022-08-03T12:05:51.732Z,46.78
2022-08-03T12:08:43.305Z,48.72
2022-08-03T12:11:33.364Z,49.03
2022-08-03T12:14:49.545Z,35.83
2022-08-03T12:17:36.851Z,42.38
2022-08-03T12:20:35.294Z,38.45
2022-08-03T12:23:25.325Z,41.50
2022-08-03T12:26:14.712Z,39.05
2022-08-03T12:29:05.071Z,37.45
2022-08-03T12:31:56.045Z,39.35
2022-08-03T12:34:51.225Z,41.83
2022-08-03T12:37:41.048Z,44.55
2022-08-03T12:40:31.961Z,48.08
2022-08-03T12:43:24.733Z,57.03
2022-08-03T12:46:17.676Z,50.58
2022-08-03T12:49:07.462Z,51.50
2022-08-03T12:52:02.696Z,44.17
2022-08-03T12:55:02.401Z,42.40
2022-08-03T12:57:52.601Z,42.97
2022-08-03T13:00:42.446Z,44.78
2022-08-03T13:03:42.920Z,45.00
2022-08-03T13:06:32.874Z,36.72
2022-08-03T13:09:22.652Z,39.22
2022-08-03T13:12:17.060Z,39.90
2022-08-03T13:15:06.659Z,41.95
2022-08-03T13:17:59.939Z,40.00
2022-08-03T13:20:49.684Z,40.53
2022-08-03T13:23:39.486Z,38.20
2022-08-03T13:26:34.380Z,31.27
2022-08-03T13:29:24.118Z,33.33
2022-08-03T13:32:13.930Z,30.25
2022-08-03T13:35:06.875Z,35.55
2022-08-03T13:37:57.172Z,29.70
2022-08-03T13:40:47.242Z,32.00
2022-08-03T13:43:40.391Z,25.42
2022-08-03T13:46:30.909Z,30.60
2022-08-03T13:49:21.028Z,30.15
2022-08-03T13:52:10.818Z,26.73
2022-08-03T13:55:01.270Z,26.42
2022-08-03T13:58:03.795Z,35.33
2022-08-03T14:00:56.232Z,26.23
2022-08-03T14:03:47.815Z,23.67
2022-08-03T14:06:37.550Z,31.45
2022-08-03T14:09:28.172Z,27.23
2022-08-03T14:12:18.887Z,29.15
2022-08-03T14:15:11.389Z,27.83
2022-08-03T14:18:03.863Z,31.52
2022-08-03T14:20:56.332Z,32.45
2022-08-03T14:23:47.298Z,36.75
2022-08-03T14:26:36.416Z,36.38
2022-08-03T14:29:25.694Z,32.55
2022-08-03T14:32:15.175Z,29.20
2022-08-03T14:35:05.354Z,31.02
2022-08-03T14:37:54.689Z,27.30
2022-08-03T14:40:44.824Z,30.00
2022-08-03T14:43:36.006Z,33.55
2022-08-03T14:46:26.322Z,31.48
2022-08-03T14:50:30.260Z,29.38
2022-08-03T14:52:27.674Z,33.88
2022-08-03T14:55:17.082Z,31.42
2022-08-03T14:58:19.647Z,29.95
2022-08-03T15:02:03.397Z,30.38
2022-08-03T15:04:21.214Z,27.85
2022-08-03T15:07:11.333Z,26.85
2022-08-03T15:10:02.442Z,27.35
2022-08-03T15:12:51.877Z,29.10
2022-08-03T15:15:42.990Z,27.20
2022-08-03T15:18:34.994Z,26.88
2022-08-03T15:21:46.028Z,24.02
2022-08-03T15:24:36.112Z,23.98
2022-08-03T15:27:26.066Z,21.10
2022-08-03T15:30:15.683Z,20.77
2022-08-03T15:33:05.902Z,23.05
2022-08-03T15:35:55.543Z,19.58
2022-08-03T15:38:45.885Z,19.13
2022-08-03T15:41:35.774Z,18.35
2022-08-03T15:44:26.121Z,19.05
2022-08-03T15:47:18.857Z,16.77
2022-08-03T15:50:09.900Z,25.48
2022-08-03T15:53:00.495Z,19.40
2022-08-03T15:55:53.020Z,19.00
2022-08-03T15:59:04.578Z,18.77
2022-08-03T16:01:58.155Z,21.33
2022-08-03T16:04:48.765Z,15.88
2022-08-03T16:08:03.100Z,22.90
2022-08-03T16:10:53.251Z,18.00
2022-08-03T16:14:11.896Z,19.23
2022-08-03T16:16:57.171Z,335.88
2022-08-03T16:19:46.736Z,268.35
2022-08-03T16:22:36.950Z,191.93
2022-08-03T16:25:26.992Z,111.32
2022-08-03T16:28:16.951Z,66.63
2022-08-03T16:31:07.922Z,37.33
2022-08-03T16:33:57.384Z,33.15
2022-08-03T16:36:50.360Z,31.92
2022-08-03T16:39:40.370Z,27.25
2022-08-03T16:42:35.246Z,32.10
2022-08-03T16:45:25.560Z,31.95
2022-08-03T16:48:16.544Z,27.38
2022-08-03T16:51:06.529Z,28.05
2022-08-03T16:54:08.001Z,30.55
2022-08-03T16:57:02.559Z,29.88
2022-08-03T16:59:51.934Z,29.92
2022-08-03T17:02:48.151Z,38.65
2022-08-03T17:05:47.038Z,33.05
2022-08-03T17:08:37.029Z,37.58
2022-08-03T17:11:33.043Z,33.20
2022-08-03T17:14:28.258Z,36.30
2022-08-03T17:17:25.524Z,31.05
2022-08-03T17:20:16.686Z,31.73
2022-08-03T17:23:34.288Z,34.90
2022-08-03T17:26:30.270Z,31.58
2022-08-03T17:29:26.324Z,32.55
2022-08-03T17:32:22.180Z,36.22
2022-08-03T17:35:14.200Z,34.53
2022-08-03T17:38:06.562Z,35.60
2022-08-03T17:40:59.028Z,35.13
2022-08-03T17:44:15.244Z,36.13
2022-08-03T17:47:01.575Z,33.08
2022-08-03T17:49:51.389Z,34.05
2022-08-03T17:52:48.249Z,36.13
2022-08-03T17:55:55.170Z,35.03
2022-08-03T17:59:08.472Z,30.63
2022-08-03T18:02:29.957Z,30.33
2022-08-03T18:05:22.884Z,35.03
2022-08-03T18:08:35.418Z,32.28
2022-08-03T18:11:37.234Z,33.40
2022-08-03T18:14:57.903Z,33.75
2022-08-03T18:18:02.181Z,39.28
2022-08-03T18:20:52.333Z,33.58
2022-08-03T18:23:42.133Z,36.25
2022-08-03T18:26:32.531Z,32.80
2022-08-03T18:29:24.134Z,36.15
2022-08-03T18:32:16.862Z,41.25
2022-08-03T18:35:08.221Z,39.35
2022-08-03T18:38:04.942Z,40.90
2022-08-03T18:40:59.942Z,40.47
2022-08-03T18:44:06.589Z,41.72
2022-08-03T18:47:16.310Z,41.47
2022-08-03T18:50:50.028Z,39.60
2022-08-03T18:54:03.579Z,44.50
2022-08-03T18:56:56.541Z,41.35
2022-08-03T18:59:56.360Z,43.58
2022-08-03T19:02:51.264Z,45.47
2022-08-03T19:06:14.579Z,43.55
2022-08-03T19:09:21.455Z,39.58
2022-08-03T19:12:33.875Z,41.55
2022-08-03T19:15:37.054Z,40.65
2022-08-03T19:18:34.577Z,42.10
2022-08-03T19:21:24.433Z,40.75
2022-08-03T19:24:15.492Z,37.10
2022-08-03T19:27:06.830Z,40.10
2022-08-03T19:30:08.214Z,35.85
2022-08-03T19:33:05.308Z,36.08
2022-08-03T19:35:57.092Z,37.45
2022-08-03T19:38:47.822Z,36.95
2022-08-03T19:41:41.621Z,34.97
2022-08-03T19:44:33.742Z,38.45
2022-08-03T19:47:30.729Z,40.08
2022-08-03T19:50:22.043Z,36.65
2022-08-03T19:53:12.777Z,40.20
2022-08-03T19:56:07.989Z,38.13
2022-08-03T19:58:59.879Z,36.22
2022-08-03T20:05:00.509Z,38.33
2022-08-03T20:07:52.175Z,38.75
2022-08-03T20:10:41.646Z,37.40
2022-08-03T20:13:39.015Z,36.75
2022-08-03T20:16:29.004Z,36.95
2022-08-03T20:19:20.011Z,34.53
2022-08-03T20:22:14.493Z,37.22
2022-08-03T20:25:10.574Z,34.47
2022-08-03T20:28:13.590Z,36.25
2022-08-03T20:31:04.483Z,36.28
2022-08-03T20:33:56.525Z,37.05
2022-08-03T20:36:47.315Z,39.97
2022-08-03T20:39:37.515Z,35.88
2022-08-03T20:42:29.963Z,39.03
2022-08-03T20:45:59.918Z,37.25
2022-08-03T20:48:32.545Z,39.85
2022-08-03T20:51:50.030Z,39.85
2022-08-03T20:54:32.503Z,42.60
2022-08-03T20:57:22.203Z,38.28
2022-08-03T21:00:14.323Z,38.35
2022-08-03T21:03:04.300Z,39.25
2022-08-03T21:05:55.533Z,38.05
2022-08-03T21:08:46.867Z,35.10
2022-08-03T21:11:51.009Z,35.88
2022-08-03T21:13:09.393Z,36.10
2022-08-03T21:15:03.723Z,37.00
2022-08-03T21:17:56.968Z,38.40
2022-08-03T21:20:48.432Z,37.67
2022-08-03T21:23:48.960Z,38.15
2022-08-03T21:26:41.293Z,37.97
2022-08-03T21:29:31.240Z,38.13
2022-08-03T21:32:32.809Z,41.58
2022-08-03T21:35:24.504Z,42.97
2022-08-03T21:38:29.461Z,49.30
2022-08-03T21:41:20.467Z,50.72
2022-08-03T21:44:10.424Z,51.70
2022-08-03T21:47:01.353Z,50.95
2022-08-03T21:50:08.385Z,49.97
2022-08-03T21:52:58.964Z,47.92
2022-08-03T21:56:06.109Z,44.13
2022-08-03T21:58:58.068Z,42.65
2022-08-03T22:01:51.563Z,44.25
2022-08-03T22:04:55.240Z,42.35
2022-08-03T22:07:46.135Z,42.72
2022-08-03T22:10:36.367Z,45.08
2022-08-03T22:13:43.793Z,41.05
2022-08-03T22:16:37.444Z,43.22
2022-08-03T22:19:27.432Z,58.85
2022-08-03T22:22:20.530Z,43.45
2022-08-03T22:25:13.964Z,42.65
2022-08-03T22:28:11.156Z,42.67
2022-08-03T22:31:57.639Z,43.42
2022-08-03T22:34:10.964Z,42.15
2022-08-03T22:37:05.263Z,41.40
2022-08-03T22:39:55.371Z,42.33
2022-08-03T22:42:47.296Z,42.42
2022-08-03T22:45:45.832Z,40.72
2022-08-03T22:48:48.741Z,39.67
2022-08-03T22:51:38.364Z,41.22
2022-08-03T22:54:30.155Z,38.85
2022-08-03T22:57:21.754Z,39.45
2022-08-03T23:00:14.552Z,41.90
2022-08-03T23:03:04.838Z,41.42
2022-08-03T23:06:00.477Z,41.35
2022-08-03T23:08:53.684Z,41.33
2022-08-03T23:11:47.605Z,42.83
2022-08-03T23:14:41.043Z,44.30
2022-08-03T23:17:33.168Z,42.78
2022-08-03T23:20:26.624Z,43.13
2022-08-03T23:23:16.609Z,45.70
2022-08-03T23:26:10.272Z,43.88
2022-08-03T23:29:04.971Z,43.92
2022-08-03T23:31:56.431Z,43.35
2022-08-03T23:35:06.211Z,42.83
2022-08-03T23:38:21.571Z,39.88
2022-08-03T23:41:10.257Z,39.15
2022-08-03T23:44:01.670Z,35.88
2022-08-03T23:46:53.740Z,38.42
2022-08-03T23:49:43.398Z,33.60
2022-08-03T23:52:47.768Z,39.67
2022-08-03T23:55:53.584Z,36.45
2022-08-03T23:59:01.488Z,37.50
